createdAt,value
2018-08-23T00:01:30.572Z,87.09
2018-08-23T00:04:03.745Z,87.05
2018-08-23T00:06:32.252Z,87.26
2018-08-23T00:09:00.733Z,87.01
2018-08-23T00:11:31.060Z,87.78
2018-08-23T00:13:59.732Z,88.03
2018-08-23T00:16:34.188Z,87.57
2018-08-23T00:19:03.876Z,87.74
2018-08-23T00:21:32.382Z,87.55
2018-08-23T00:24:16.811Z,87.52
2018-08-23T00:26:45.947Z,88.30
2018-08-23T00:29:19.951Z,87.84
2018-08-23T00:31:53.045Z,87.87
2018-08-23T00:34:32.148Z,88.16
2018-08-23T00:37:01.239Z,88.32
2018-08-23T00:39:30.128Z,88.43
2018-08-23T00:42:03.952Z,88.10
2018-08-23T00:45:09.340Z,89.15
2018-08-23T00:48:22.674Z,88.82
2018-08-23T00:50:52.464Z,88.43
2018-08-23T00:53:21.022Z,88.10
2018-08-23T00:55:59.232Z,88.40
2018-08-23T00:58:27.701Z,88.10
2018-08-23T01:01:01.496Z,88.61
2018-08-23T01:03:30.030Z,88.78
2018-08-23T01:05:58.587Z,89.11
2018-08-23T01:08:35.087Z,89.67
2018-08-23T01:11:04.968Z,90.04
2018-08-23T01:13:33.444Z,90.20
2018-08-23T01:16:01.998Z,90.60
2018-08-23T01:18:30.622Z,90.52
2018-08-23T01:21:25.521Z,90.19
2018-08-23T01:23:53.989Z,89.55
2018-08-23T01:26:22.667Z,89.94
2018-08-23T01:28:51.160Z,90.40
2018-08-23T01:31:28.669Z,90.21
2018-08-23T01:33:58.679Z,89.93
2018-08-23T01:36:32.670Z,89.85
2018-08-23T01:39:12.029Z,89.90
2018-08-23T01:41:40.635Z,89.28
2018-08-23T01:44:09.065Z,88.93
2018-08-23T01:46:42.858Z,89.54
2018-08-23T01:49:11.409Z,89.70
2018-08-23T01:51:39.951Z,90.35
2018-08-23T01:54:08.485Z,90.25
2018-08-23T01:56:45.018Z,89.53
2018-08-23T01:59:13.461Z,89.76
2018-08-23T02:01:42.069Z,89.97
2018-08-23T02:04:10.649Z,90.35
2018-08-23T02:07:28.166Z,90.58
2018-08-23T02:09:56.878Z,90.50
2018-08-23T02:12:25.775Z,90.62
2018-08-23T02:15:00.144Z,90.95
2018-08-23T02:17:30.354Z,90.60
2018-08-23T02:19:58.882Z,90.66
2018-08-23T02:22:27.381Z,90.79
2018-08-23T02:24:55.861Z,91.08
2018-08-23T02:28:10.371Z,91.41
2018-08-23T02:30:50.259Z,90.97
2018-08-23T02:33:19.037Z,91.21
2018-08-23T02:36:05.257Z,91.16
2018-08-23T02:38:34.521Z,91.32
2018-08-23T02:41:03.058Z,91.28
2018-08-23T02:43:31.517Z,91.78
2018-08-23T02:46:02.381Z,91.53
2018-08-23T02:48:31.062Z,91.17
2018-08-23T02:51:01.052Z,91.18
2018-08-23T02:53:34.766Z,91.83
2018-08-23T02:56:04.286Z,91.86
2018-08-23T02:58:32.872Z,92.59
2018-08-23T03:01:05.241Z,92.24
2018-08-23T03:03:35.493Z,92.53
2018-08-23T03:06:04.035Z,92.17
2018-08-23T03:08:43.036Z,92.10
2018-08-23T03:11:11.844Z,92.13
2018-08-23T03:13:43.884Z,91.92
2018-08-23T03:16:12.810Z,91.90
2018-08-23T03:19:02.933Z,92.21
2018-08-23T03:21:32.401Z,92.19
2018-08-23T03:24:00.853Z,91.93
2018-08-23T03:26:30.393Z,91.85
2018-08-23T03:28:59.037Z,92.32
2018-08-23T03:31:27.458Z,92.14
2018-08-23T03:33:55.905Z,92.62
2018-08-23T03:36:24.414Z,92.53
2018-08-23T03:38:53.495Z,92.46
2018-08-23T03:41:22.321Z,92.15
2018-08-23T03:43:50.999Z,91.98
2018-08-23T03:46:19.477Z,92.14
2018-08-23T03:48:52.056Z,92.03
2018-08-23T03:51:20.678Z,92.27
2018-08-23T03:53:54.530Z,93.20
2018-08-23T03:56:23.043Z,92.87
2018-08-23T03:58:51.617Z,93.16
2018-08-23T04:01:20.049Z,92.45
2018-08-23T04:03:48.687Z,92.91
2018-08-23T04:06:38.272Z,92.75
2018-08-23T04:09:09.029Z,92.64
2018-08-23T04:11:37.577Z,92.93
2018-08-23T04:14:06.051Z,92.83
2018-08-23T04:16:34.937Z,92.89
2018-08-23T04:19:03.463Z,93.38
2018-08-23T04:21:31.928Z,93.38
2018-08-23T04:24:00.391Z,92.77
2018-08-23T04:26:29.124Z,92.87
2018-08-23T04:28:57.681Z,92.99
2018-08-23T04:31:38.472Z,93.58
2018-08-23T04:34:07.936Z,92.68
2018-08-23T04:36:39.490Z,91.90
2018-08-23T04:39:10.945Z,92.07
2018-08-23T04:41:39.542Z,92.56
2018-08-23T04:44:11.381Z,92.90
2018-08-23T04:46:39.961Z,92.30
2018-08-23T04:49:08.596Z,92.75
2018-08-23T04:51:38.008Z,92.81
2018-08-23T04:54:09.829Z,92.90
2018-08-23T04:56:38.397Z,93.27
2018-08-23T04:59:06.895Z,93.44
2018-08-23T05:01:37.524Z,93.22
2018-08-23T05:04:06.130Z,93.66
2018-08-23T05:06:34.586Z,93.67
2018-08-23T05:09:03.290Z,93.42
2018-08-23T05:11:31.843Z,93.71
2018-08-23T05:14:00.415Z,94.01
2018-08-23T05:16:31.273Z,94.56
2018-08-23T05:18:59.793Z,94.67
2018-08-23T05:21:28.341Z,94.91
2018-08-23T05:24:32.046Z,94.96
2018-08-23T05:27:03.582Z,94.60
2018-08-23T05:29:32.910Z,95.64
2018-08-23T05:32:01.508Z,95.10
2018-08-23T05:34:29.959Z,95.36
2018-08-23T05:36:58.459Z,95.64
2018-08-23T05:39:35.853Z,95.34
2018-08-23T05:42:22.321Z,95.52
2018-08-23T05:44:51.660Z,95.30
2018-08-23T05:47:20.224Z,94.95
2018-08-23T05:49:48.775Z,95.20
2018-08-23T05:52:18.900Z,95.22
2018-08-23T05:54:47.453Z,94.86
2018-08-23T05:57:16.813Z,94.81
2018-08-23T05:59:45.314Z,95.09
2018-08-23T06:02:13.887Z,95.44
2018-08-23T06:04:43.516Z,94.87
2018-08-23T06:07:12.085Z,94.80
2018-08-23T06:09:43.224Z,95.16
2018-08-23T06:12:11.712Z,94.88
2018-08-23T06:14:52.452Z,95.00
2018-08-23T06:17:20.890Z,94.69
2018-08-23T06:19:49.353Z,94.32
2018-08-23T06:22:17.868Z,94.67
2018-08-23T06:24:46.515Z,94.27
2018-08-23T06:27:14.994Z,94.70
2018-08-23T06:29:43.492Z,94.29
2018-08-23T06:32:12.085Z,94.09
2018-08-23T06:34:50.543Z,94.08
2018-08-23T06:37:19.973Z,94.08
2018-08-23T06:39:48.465Z,94.33
2018-08-23T06:42:16.960Z,93.94
2018-08-23T06:45:00.165Z,93.38
2018-08-23T06:47:28.664Z,92.92
2018-08-23T06:49:57.260Z,92.71
2018-08-23T06:52:36.404Z,92.19
2018-08-23T06:55:05.597Z,91.96
2018-08-23T06:57:40.728Z,91.35
2018-08-23T07:00:09.498Z,90.67
2018-08-23T07:02:42.458Z,91.07
2018-08-23T07:05:11.310Z,90.80
2018-08-23T07:07:39.882Z,90.10
2018-08-23T07:10:08.508Z,90.00
2018-08-23T07:12:37.017Z,89.86
2018-08-23T07:15:05.841Z,90.28
2018-08-23T07:17:34.376Z,89.94
2018-08-23T07:20:03.905Z,89.48
2018-08-23T07:22:34.972Z,89.37
2018-08-23T07:25:03.679Z,89.18
2018-08-23T07:27:32.199Z,88.83
2018-08-23T07:30:00.926Z,88.10
2018-08-23T07:32:30.649Z,87.72
2018-08-23T07:35:05.033Z,86.60
2018-08-23T07:37:34.642Z,86.18
2018-08-23T07:40:08.485Z,85.08
2018-08-23T07:42:37.778Z,84.70
2018-08-23T07:45:19.329Z,84.21
2018-08-23T07:47:55.657Z,83.75
2018-08-23T07:50:24.168Z,83.62
2018-08-23T07:52:54.070Z,82.53
2018-08-23T07:55:22.938Z,81.87
2018-08-23T07:57:51.383Z,81.75
2018-08-23T08:00:38.121Z,81.06
2018-08-23T08:03:07.029Z,80.41
2018-08-23T08:05:39.639Z,79.79
2018-08-23T08:08:09.397Z,79.97
2018-08-23T08:10:47.342Z,79.22
2018-08-23T08:13:15.951Z,79.30
2018-08-23T08:15:44.432Z,78.81
2018-08-23T08:18:21.655Z,78.40
2018-08-23T08:20:56.290Z,78.70
2018-08-23T08:23:24.733Z,78.25
2018-08-23T08:25:53.295Z,78.34
2018-08-23T08:28:21.829Z,77.79
2018-08-23T08:30:56.988Z,77.76
2018-08-23T08:33:25.821Z,77.09
2018-08-23T08:36:01.266Z,77.26
2018-08-23T08:38:30.866Z,76.68
2018-08-23T08:41:00.209Z,76.41
2018-08-23T08:43:28.756Z,76.34
2018-08-23T08:45:58.691Z,75.82
2018-08-23T08:48:30.846Z,75.48
2018-08-23T08:51:17.899Z,74.69
2018-08-23T08:53:47.048Z,74.71
2018-08-23T08:56:15.731Z,73.85
2018-08-23T08:58:44.426Z,72.97
2018-08-23T09:01:12.896Z,72.43
2018-08-23T09:03:41.405Z,71.30
2018-08-23T09:06:11.125Z,71.46
2018-08-23T09:08:57.116Z,71.39
2018-08-23T09:11:26.948Z,71.95
2018-08-23T09:13:55.516Z,72.91
2018-08-23T09:16:24.797Z,73.06
2018-08-23T09:19:03.206Z,72.66
2018-08-23T09:21:32.212Z,72.41
2018-08-23T09:24:39.322Z,72.53
2018-08-23T09:27:16.189Z,71.88
2018-08-23T09:29:44.637Z,72.24
2018-08-23T09:32:19.410Z,72.10
2018-08-23T09:34:48.280Z,73.06
2018-08-23T09:37:16.752Z,72.18
2018-08-23T09:39:46.270Z,71.90
2018-08-23T09:42:14.817Z,72.69
2018-08-23T09:44:58.361Z,73.08
2018-08-23T09:47:27.843Z,72.10
2018-08-23T09:49:57.081Z,71.50
2018-08-23T09:52:30.577Z,71.06
2018-08-23T09:54:59.151Z,70.71
2018-08-23T09:57:27.630Z,70.47
2018-08-23T09:59:57.460Z,71.08
2018-08-23T10:02:31.312Z,70.71
2018-08-23T10:05:05.489Z,69.78
2018-08-23T10:07:39.267Z,68.80
2018-08-23T10:10:13.128Z,67.75
2018-08-23T10:12:46.838Z,66.96
2018-08-23T10:15:20.632Z,66.71
2018-08-23T10:18:04.409Z,67.16
2018-08-23T10:20:43.977Z,67.06
2018-08-23T10:23:18.257Z,66.62
2018-08-23T10:25:48.223Z,66.77
2018-08-23T10:28:17.928Z,67.16
2018-08-23T10:30:46.834Z,67.65
2018-08-23T10:33:15.320Z,67.00
2018-08-23T10:35:54.841Z,66.04
2018-08-23T10:38:24.859Z,66.64
2018-08-23T10:40:54.825Z,67.44
2018-08-23T10:43:28.650Z,67.35
2018-08-23T10:46:01.338Z,67.92
2018-08-23T10:48:31.034Z,68.28
2018-08-23T10:50:59.615Z,67.90
2018-08-23T10:53:28.137Z,67.79
2018-08-23T10:56:11.604Z,67.72
2018-08-23T10:58:40.216Z,67.04
2018-08-23T11:01:08.825Z,67.30
2018-08-23T11:03:37.521Z,66.63
2018-08-23T11:06:15.052Z,64.41
2018-08-23T11:08:47.804Z,64.45
2018-08-23T11:11:21.749Z,64.62
2018-08-23T11:13:50.400Z,63.81
2018-08-23T11:17:23.014Z,62.87
2018-08-23T11:19:56.924Z,64.04
2018-08-23T11:22:30.291Z,64.09
2018-08-23T11:24:58.872Z,63.81
2018-08-23T11:27:27.464Z,62.72
2018-08-23T11:29:56.144Z,63.43
2018-08-23T11:32:24.650Z,63.58
2018-08-23T11:35:25.698Z,63.19
2018-08-23T11:37:54.252Z,61.90
2018-08-23T11:40:22.842Z,62.42
2018-08-23T11:42:51.506Z,61.69
2018-08-23T11:45:19.936Z,62.53
2018-08-23T11:47:48.529Z,62.58
2018-08-23T11:50:17.104Z,61.34
2018-08-23T11:52:45.700Z,60.89
2018-08-23T11:55:14.241Z,60.71
2018-08-23T11:57:42.960Z,60.39
2018-08-23T12:00:11.416Z,59.06
2018-08-23T12:02:43.069Z,58.48
2018-08-23T12:05:15.949Z,58.13
2018-08-23T12:07:45.393Z,57.92
2018-08-23T12:10:15.872Z,56.17
2018-08-23T12:12:45.182Z,56.47
2018-08-23T12:15:13.662Z,55.55
2018-08-23T12:17:42.254Z,54.49
2018-08-23T12:20:12.968Z,56.15
2018-08-23T12:22:41.501Z,56.33
2018-08-23T12:25:11.926Z,57.03
2018-08-23T12:27:41.325Z,56.52
2018-08-23T12:30:09.890Z,56.84
2018-08-23T12:32:38.545Z,57.07
2018-08-23T12:35:07.149Z,57.73
2018-08-23T12:37:41.036Z,58.44
2018-08-23T12:40:14.828Z,58.50
2018-08-23T12:42:47.630Z,57.85
2018-08-23T12:45:16.299Z,56.94
2018-08-23T12:47:45.131Z,55.92
2018-08-23T12:50:13.562Z,55.54
2018-08-23T12:52:42.115Z,53.77
2018-08-23T12:55:10.670Z,53.18
2018-08-23T12:57:39.097Z,53.55
2018-08-23T13:00:07.557Z,52.96
2018-08-23T13:02:51.109Z,53.58
2018-08-23T13:05:19.783Z,54.47
2018-08-23T13:07:48.338Z,54.72
2018-08-23T13:10:17.636Z,54.03
2018-08-23T13:12:46.142Z,55.14
2018-08-23T13:15:14.694Z,54.22
2018-08-23T13:17:43.272Z,53.28
2018-08-23T13:20:11.917Z,52.92
2018-08-23T13:22:41.691Z,52.52
2018-08-23T13:25:11.908Z,51.84
2018-08-23T13:27:40.480Z,51.43
2018-08-23T13:30:09.165Z,49.26
2018-08-23T13:32:37.678Z,49.56
2018-08-23T13:35:06.477Z,48.86
2018-08-23T13:37:35.058Z,49.50
2018-08-23T13:40:03.736Z,48.67
2018-08-23T13:42:32.337Z,48.70
2018-08-23T13:45:00.876Z,49.62
2018-08-23T13:47:29.377Z,48.58
2018-08-23T13:49:57.893Z,50.15
2018-08-23T13:52:26.488Z,49.39
2018-08-23T13:54:54.974Z,48.64
2018-08-23T13:57:23.476Z,49.33
2018-08-23T13:59:51.960Z,49.74
2018-08-23T14:02:20.535Z,48.78
2018-08-23T14:04:49.046Z,48.38
2018-08-23T14:07:17.725Z,48.87
2018-08-23T14:09:46.115Z,48.66
2018-08-23T14:12:14.821Z,48.96
2018-08-23T14:14:44.309Z,48.88
2018-08-23T14:17:12.802Z,49.87
2018-08-23T14:19:41.352Z,49.59
2018-08-23T14:22:09.876Z,50.56
2018-08-23T14:24:38.435Z,52.82
2018-08-23T14:27:07.053Z,52.27
2018-08-23T14:29:35.513Z,51.89
2018-08-23T14:32:04.210Z,52.65
2018-08-23T14:34:32.771Z,53.21
2018-08-23T14:37:01.382Z,53.44
2018-08-23T14:39:30.434Z,52.97
2018-08-23T14:41:59.326Z,53.37
2018-08-23T14:44:27.968Z,53.01
2018-08-23T14:47:01.814Z,52.56
2018-08-23T14:49:35.981Z,53.14
2018-08-23T14:52:05.946Z,53.70
2018-08-23T14:54:40.616Z,52.68
2018-08-23T14:57:44.144Z,52.55
2018-08-23T15:00:13.348Z,52.45
2018-08-23T15:02:41.896Z,51.75
2018-08-23T15:05:10.532Z,52.39
2018-08-23T15:07:39.071Z,52.60
2018-08-23T15:10:07.651Z,51.97
2018-08-23T15:12:36.186Z,51.41
2018-08-23T15:15:07.949Z,51.21
2018-08-23T15:17:36.576Z,51.77
2018-08-23T15:20:05.158Z,51.64
2018-08-23T15:22:42.673Z,52.25
2018-08-23T15:25:11.139Z,52.77
2018-08-23T15:27:39.747Z,52.70
2018-08-23T15:30:08.403Z,52.68
2018-08-23T15:32:37.036Z,53.43
2018-08-23T15:35:20.192Z,53.63
2018-08-23T15:37:48.705Z,53.25
2018-08-23T15:40:17.473Z,53.24
2018-08-23T15:42:46.017Z,53.94
2018-08-23T15:45:14.505Z,54.79
2018-08-23T15:47:43.031Z,54.49
2018-08-23T15:50:11.580Z,54.91
2018-08-23T15:52:40.159Z,54.39
2018-08-23T15:55:08.908Z,55.10
2018-08-23T15:57:37.741Z,54.46
2018-08-23T16:00:06.956Z,55.29
2018-08-23T16:02:35.683Z,55.30
2018-08-23T16:05:04.352Z,54.70
2018-08-23T16:07:32.904Z,54.32
2018-08-23T16:10:01.482Z,54.52
2018-08-23T16:12:30.258Z,55.00
2018-08-23T16:14:58.963Z,54.88
2018-08-23T16:17:32.682Z,54.01
2018-08-23T16:20:06.296Z,53.22
2018-08-23T16:22:34.796Z,53.52
2018-08-23T16:25:03.501Z,53.11
2018-08-23T16:27:32.012Z,53.48
2018-08-23T16:30:00.481Z,53.42
2018-08-23T16:32:34.395Z,53.74
2018-08-23T16:35:03.115Z,53.95
2018-08-23T16:37:32.652Z,54.43
2018-08-23T16:40:01.054Z,54.78
2018-08-23T16:43:01.420Z,55.28
2018-08-23T16:45:30.387Z,54.73
2018-08-23T16:47:59.006Z,54.30
2018-08-23T16:50:38.110Z,53.79
2018-08-23T16:53:06.773Z,53.84
2018-08-23T16:55:35.365Z,54.51
2018-08-23T16:58:03.889Z,53.32
2018-08-23T17:00:32.435Z,53.33
2018-08-23T17:03:00.977Z,54.21
2018-08-23T17:05:29.711Z,54.81
2018-08-23T17:07:58.136Z,55.25
2018-08-23T17:10:26.676Z,55.66
2018-08-23T17:12:55.164Z,55.58
2018-08-23T17:15:23.670Z,56.02
2018-08-23T17:17:56.745Z,55.64
2018-08-23T17:20:25.327Z,54.87
2018-08-23T17:22:54.241Z,54.60
2018-08-23T17:25:22.789Z,54.77
2018-08-23T17:27:51.308Z,54.67
2018-08-23T17:30:19.898Z,55.05
2018-08-23T17:32:48.452Z,55.66
2018-08-23T17:35:17.133Z,55.55
2018-08-23T17:37:45.799Z,55.34
2018-08-23T17:40:57.885Z,55.56
2018-08-23T17:43:27.064Z,55.91
2018-08-23T17:45:55.807Z,55.76
2018-08-23T17:48:24.392Z,56.66
2018-08-23T17:50:52.993Z,56.96
2018-08-23T17:53:21.579Z,56.91
2018-08-23T17:55:50.332Z,57.72
2018-08-23T17:58:18.833Z,57.46
2018-08-23T18:00:47.405Z,57.82
2018-08-23T18:03:17.032Z,58.53
2018-08-23T18:05:45.597Z,58.51
2018-08-23T18:08:14.198Z,59.14
2018-08-23T18:10:42.769Z,59.33
2018-08-23T18:13:11.226Z,59.88
2018-08-23T18:15:44.887Z,59.76
2018-08-23T18:18:13.456Z,60.50
2018-08-23T18:20:41.939Z,60.35
2018-08-23T18:23:20.865Z,60.67
2018-08-23T18:25:49.452Z,60.90
2018-08-23T18:28:18.024Z,61.33
2018-08-23T18:30:46.549Z,61.64
2018-08-23T18:33:15.130Z,61.92
2018-08-23T18:35:43.793Z,62.56
2018-08-23T18:38:12.835Z,62.62
2018-08-23T18:40:41.395Z,62.73
2018-08-23T18:43:10.028Z,62.60
2018-08-23T18:45:38.755Z,63.24
2018-08-23T18:48:07.022Z,63.60
2018-08-23T18:50:35.780Z,63.38
2018-08-23T18:53:04.392Z,63.67
2018-08-23T18:55:32.988Z,63.81
2018-08-23T18:58:01.553Z,63.83
2018-08-23T19:00:30.402Z,64.03
2018-08-23T19:02:58.929Z,64.24
2018-08-23T19:05:27.441Z,64.31
2018-08-23T19:07:55.970Z,64.63
2018-08-23T19:10:24.607Z,65.06
2018-08-23T19:12:53.110Z,65.85
2018-08-23T19:15:28.597Z,66.05
2018-08-23T19:17:58.940Z,65.52
2018-08-23T19:20:29.757Z,65.87
2018-08-23T19:23:00.369Z,65.79
2018-08-23T19:25:31.547Z,65.85
2018-08-23T19:28:02.533Z,65.94
2018-08-23T19:30:32.897Z,65.72
2018-08-23T19:33:01.403Z,66.46
2018-08-23T19:35:29.997Z,67.11
2018-08-23T19:37:58.596Z,67.67
2018-08-23T19:40:30.222Z,68.08
2018-08-23T19:43:00.028Z,68.05
2018-08-23T19:45:32.769Z,67.75
2018-08-23T19:48:01.692Z,67.12
2018-08-23T19:50:30.170Z,66.61
2018-08-23T19:52:58.666Z,66.86
2018-08-23T19:55:27.250Z,66.36
2018-08-23T19:57:55.889Z,66.94
2018-08-23T20:00:24.698Z,66.83
2018-08-23T20:02:53.117Z,66.79
2018-08-23T20:05:21.853Z,66.37
2018-08-23T20:07:50.511Z,66.46
2018-08-23T20:10:21.963Z,66.45
2018-08-23T20:12:50.889Z,66.88
2018-08-23T20:15:26.331Z,67.03
2018-08-23T20:17:56.106Z,66.97
2018-08-23T20:20:24.797Z,66.52
2018-08-23T20:22:53.332Z,67.08
2018-08-23T20:25:21.897Z,67.14
2018-08-23T20:27:50.408Z,67.12
2018-08-23T20:30:18.910Z,66.90
2018-08-23T20:32:47.377Z,66.55
2018-08-23T20:35:15.965Z,66.64
2018-08-23T20:37:44.612Z,66.69
2018-08-23T20:40:13.137Z,65.99
2018-08-23T20:42:41.746Z,66.46
2018-08-23T20:45:10.273Z,65.94
2018-08-23T20:47:38.757Z,66.10
2018-08-23T20:50:07.469Z,66.16
2018-08-23T20:52:36.041Z,65.71
2018-08-23T20:55:04.718Z,65.70
2018-08-23T20:57:33.374Z,65.73
2018-08-23T21:00:01.862Z,66.03
2018-08-23T21:02:30.509Z,66.26
2018-08-23T21:04:58.973Z,65.90
2018-08-23T21:07:29.111Z,66.04
2018-08-23T21:09:57.780Z,65.88
2018-08-23T21:12:26.200Z,66.23
2018-08-23T21:14:54.728Z,66.11
2018-08-23T21:17:31.513Z,66.53
2018-08-23T21:20:00.257Z,66.31
2018-08-23T21:22:28.780Z,66.79
2018-08-23T21:24:57.592Z,66.45
2018-08-23T21:27:26.070Z,66.54
2018-08-23T21:29:54.589Z,66.48
2018-08-23T21:32:23.264Z,66.77
2018-08-23T21:34:51.836Z,67.26
2018-08-23T21:37:20.426Z,67.30
2018-08-23T21:39:48.960Z,67.10
2018-08-23T21:42:17.553Z,67.50
2018-08-23T21:44:46.258Z,67.17
2018-08-23T21:47:14.758Z,67.42
2018-08-23T21:49:43.221Z,67.38
2018-08-23T21:52:11.777Z,67.17
2018-08-23T21:54:40.257Z,67.72
2018-08-23T21:57:09.147Z,67.94
2018-08-23T21:59:37.753Z,69.19
2018-08-23T22:02:11.621Z,71.24
2018-08-23T22:04:45.251Z,73.29
2018-08-23T22:07:13.743Z,74.57
2018-08-23T22:09:42.365Z,75.44
2018-08-23T22:12:10.805Z,76.43
2018-08-23T22:14:39.247Z,78.23
2018-08-23T22:17:07.794Z,78.88
2018-08-23T22:19:36.377Z,80.03
2018-08-23T22:22:04.884Z,81.33
2018-08-23T22:24:33.368Z,81.58
2018-08-23T22:27:01.898Z,82.05
2018-08-23T22:29:30.477Z,82.42
2018-08-23T22:31:59.062Z,83.37
2018-08-23T22:34:27.619Z,83.11
2018-08-23T22:36:56.124Z,83.54
2018-08-23T22:39:24.686Z,83.73
2018-08-23T22:41:53.153Z,84.02
2018-08-23T22:44:21.695Z,84.26
2018-08-23T22:46:50.203Z,83.89
2018-08-23T22:49:18.685Z,84.58
2018-08-23T22:51:47.145Z,84.85
2018-08-23T22:54:15.671Z,84.39
2018-08-23T22:56:44.392Z,84.97
2018-08-23T22:59:12.918Z,85.16
2018-08-23T23:01:43.710Z,84.93
2018-08-23T23:04:17.638Z,85.60
2018-08-23T23:06:46.327Z,86.80
2018-08-23T23:09:14.938Z,86.29
2018-08-23T23:11:43.757Z,86.49
2018-08-23T23:14:12.281Z,87.38
2018-08-23T23:16:40.729Z,88.25
2018-08-23T23:19:09.165Z,88.76
2018-08-23T23:21:37.693Z,89.66
2018-08-23T23:24:10.555Z,90.67
2018-08-23T23:26:39.155Z,91.27
2018-08-23T23:29:07.812Z,92.44
2018-08-23T23:31:36.328Z,93.16
2018-08-23T23:34:04.754Z,93.99
2018-08-23T23:36:33.298Z,94.34
2018-08-23T23:39:01.752Z,95.13
2018-08-23T23:41:30.195Z,94.89
2018-08-23T23:43:58.653Z,94.97
2018-08-23T23:46:27.228Z,95.31
2018-08-23T23:48:55.672Z,95.66
2018-08-23T23:51:24.188Z,95.99
2018-08-23T23:53:52.660Z,96.36
2018-08-23T23:56:21.167Z,95.82
2018-08-23T23:58:49.730Z,96.29
